sensor_id;sensor_type;location;lat;lon;timestamp;pressure;altitude;pressure_sealevel;temperature;humidity
19748;BME280;10032;51.386;12.516;2023-02-03T00:01:11;100874.34;;;4.57;100.00
19748;BME280;10032;51.386;12.516;2023-02-03T00:03:42;100869.16;;;4.55;100.00
19748;BME280;10032;51.386;12.516;2023-02-03T00:06:08;100864.81;;;4.54;100.00
19748;BME280;10032;51.386;12.516;2023-02-03T00:08:35;100875.56;;;4.54;100.00
19748;BME280;10032;51.386;12.516;2023-02-03T00:11:05;100859.03;;;4.51;100.00
19748;BME280;10032;51.386;12.516;2023-02-03T00:13:34;100855.31;;;4.52;100.00
19748;BME280;10032;51.386;12.516;2023-02-03T00:16:03;100851.81;;;4.51;100.00
19748;BME280;10032;51.386;12.516;2023-02-03T00:18:31;100844.75;;;4.50;100.00
19748;BME280;10032;51.386;12.516;2023-02-03T00:20:59;100840.25;;;4.51;100.00
19748;BME280;10032;51.386;12.516;2023-02-03T00:23:33;100833.03;;;4.51;100.00
19748;BME280;10032;51.386;12.516;2023-02-03T00:26:14;100823.31;;;4.50;100.00
19748;BME280;10032;51.386;12.516;2023-02-03T00:29:06;100820.00;;;4.48;100.00
19748;BME280;10032;51.386;12.516;2023-02-03T00:31:35;100806.59;;;4.48;100.00
19748;BME280;10032;51.386;12.516;2023-02-03T00:34:03;100796.88;;;4.47;100.00
19748;BME280;10032;51.386;12.516;2023-02-03T00:36:36;100790.69;;;4.47;100.00
19748;BME280;10032;51.386;12.516;2023-02-03T00:39:04;100788.84;;;4.47;100.00
19748;BME280;10032;51.386;12.516;2023-02-03T00:41:32;100781.81;;;4.46;100.00
19748;BME280;10032;51.386;12.516;2023-02-03T00:43:57;100781.59;;;4.48;100.00
19748;BME280;10032;51.386;12.516;2023-02-03T00:46:33;100768.00;;;4.49;100.00
19748;BME280;10032;51.386;12.516;2023-02-03T00:49:04;100756.84;;;4.46;100.00
19748;BME280;10032;51.386;12.516;2023-02-03T00:51:36;100759.31;;;4.47;100.00
19748;BME280;10032;51.386;12.516;2023-02-03T00:54:07;100746.72;;;4.48;100.00
19748;BME280;10032;51.386;12.516;2023-02-03T00:56:33;100740.56;;;4.47;100.00
19748;BME280;10032;51.386;12.516;2023-02-03T00:59:07;100732.50;;;4.47;100.00
19748;BME280;10032;51.386;12.516;2023-02-03T01:01:33;100738.69;;;4.48;100.00
19748;BME280;10032;51.386;12.516;2023-02-03T01:04:02;100734.16;;;4.48;100.00
19748;BME280;10032;51.386;12.516;2023-02-03T01:06:28;100734.16;;;4.48;100.00
19748;BME280;10032;51.386;12.516;2023-02-03T01:09:02;100730.00;;;4.46;100.00
19748;BME280;10032;51.386;12.516;2023-02-03T01:11:28;100733.78;;;4.51;100.00
19748;BME280;10032;51.386;12.516;2023-02-03T01:13:55;100721.38;;;4.50;100.00
19748;BME280;10032;51.386;12.516;2023-02-03T01:16:34;100723.03;;;4.51;100.00
19748;BME280;10032;51.386;12.516;2023-02-03T01:19:03;100727.56;;;4.51;100.00
19748;BME280;10032;51.386;12.516;2023-02-03T01:21:29;100717.88;;;4.50;100.00
19748;BME280;10032;51.386;12.516;2023-02-03T01:23:55;100711.91;;;4.54;100.00
19748;BME280;10032;51.386;12.516;2023-02-03T01:26:21;100699.09;;;4.56;100.00
19748;BME280;10032;51.386;12.516;2023-02-03T01:29:03;100693.13;;;4.54;100.00
19748;BME280;10032;51.386;12.516;2023-02-03T01:31:32;100686.72;;;4.55;100.00
19748;BME280;10032;51.386;12.516;2023-02-03T01:34:00;100702.63;;;4.57;100.00
19748;BME280;10032;51.386;12.516;2023-02-03T01:36:30;100682.41;;;4.54;100.00
19748;BME280;10032;51.386;12.516;2023-02-03T01:39:03;100650.81;;;4.56;100.00
19748;BME280;10032;51.386;12.516;2023-02-03T01:41:48;100648.34;;;4.55;100.00
19748;BME280;10032;51.386;12.516;2023-02-03T01:44:48;100659.50;;;4.58;100.00
19748;BME280;10032;51.386;12.516;2023-02-03T01:47:19;100657.06;;;4.63;100.00
19748;BME280;10032;51.386;12.516;2023-02-03T01:49:51;100664.09;;;4.64;100.00
19748;BME280;10032;51.386;12.516;2023-02-03T01:52:19;100650.47;;;4.66;100.00
19748;BME280;10032;51.386;12.516;2023-02-03T01:54:46;100649.63;;;4.65;100.00
19748;BME280;10032;51.386;12.516;2023-02-03T01:57:20;100652.56;;;4.70;100.00
19748;BME280;10032;51.386;12.516;2023-02-03T01:59:47;100642.66;;;4.71;100.00
19748;BME280;10032;51.386;12.516;2023-02-03T02:02:13;100632.34;;;4.74;100.00
19748;BME280;10032;51.386;12.516;2023-02-03T02:04:52;100626.97;;;4.74;100.00
19748;BME280;10032;51.386;12.516;2023-02-03T02:07:19;100619.97;;;4.73;100.00
19748;BME280;10032;51.386;12.516;2023-02-03T02:09:45;100630.50;;;4.81;100.00
19748;BME280;10032;51.386;12.516;2023-02-03T02:12:11;100628.84;;;4.80;100.00
19748;BME280;10032;51.386;12.516;2023-02-03T02:14:38;100622.06;;;4.84;100.00
19748;BME280;10032;51.386;12.516;2023-02-03T02:17:20;100614.25;;;4.89;100.00
19748;BME280;10032;51.386;12.516;2023-02-03T02:25:41;100593.22;;;4.99;100.00
19748;BME280;10032;51.386;12.516;2023-02-03T02:31:11;100584.16;;;5.07;100.00
19748;BME280;10032;51.386;12.516;2023-02-03T02:33:56;100586.22;;;5.11;100.00
19748;BME280;10032;51.386;12.516;2023-02-03T02:36:59;100572.34;;;5.14;100.00
19748;BME280;10032;51.386;12.516;2023-02-03T02:39:45;100565.97;;;5.15;100.00
19748;BME280;10032;51.386;12.516;2023-02-03T02:42:38;100564.94;;;5.16;100.00
19748;BME280;10032;51.386;12.516;2023-02-03T02:45:14;100555.22;;;5.22;100.00
19748;BME280;10032;51.386;12.516;2023-02-03T02:47:40;100547.19;;;5.28;100.00
19748;BME280;10032;51.386;12.516;2023-02-03T02:50:22;100546.13;;;5.29;100.00
19748;BME280;10032;51.386;12.516;2023-02-03T02:52:52;100551.13;;;5.32;100.00
19748;BME280;10032;51.386;12.516;2023-02-03T02:55:25;100541.63;;;5.36;100.00
19748;BME280;10032;51.386;12.516;2023-02-03T02:57:54;100541.19;;;5.39;100.00
19748;BME280;10032;51.386;12.516;2023-02-03T03:00:21;100545.53;;;5.47;100.00
19748;BME280;10032;51.386;12.516;2023-02-03T03:02:47;100534.16;;;5.51;100.00
19748;BME280;10032;51.386;12.516;2023-02-03T03:05:13;100531.66;;;5.56;100.00
19748;BME280;10032;51.386;12.516;2023-02-03T03:07:47;100523.00;;;5.61;100.00
19748;BME280;10032;51.386;12.516;2023-02-03T03:10:17;100521.75;;;5.63;100.00
19748;BME280;10032;51.386;12.516;2023-02-03T03:12:51;100501.50;;;5.67;100.00
19748;BME280;10032;51.386;12.516;2023-02-03T03:15:21;100490.53;;;5.69;100.00
19748;BME280;10032;51.386;12.516;2023-02-03T03:18:18;100500.22;;;5.76;100.00
19748;BME280;10032;51.386;12.516;2023-02-03T03:20:47;100504.78;;;5.82;100.00
19748;BME280;10032;51.386;12.516;2023-02-03T03:23:36;100495.88;;;5.88;100.00
19748;BME280;10032;51.386;12.516;2023-02-03T03:26:37;100492.38;;;5.94;100.00
19748;BME280;10032;51.386;12.516;2023-02-03T03:29:17;100504.97;;;6.00;100.00
19748;BME280;10032;51.386;12.516;2023-02-03T03:31:45;100496.47;;;6.03;100.00
19748;BME280;10032;51.386;12.516;2023-02-03T03:34:11;100498.94;;;6.11;100.00
19748;BME280;10032;51.386;12.516;2023-02-03T03:36:51;100491.84;;;6.17;100.00
19748;BME280;10032;51.386;12.516;2023-02-03T03:39:23;100490.19;;;6.22;100.00
19748;BME280;10032;51.386;12.516;2023-02-03T03:41:56;100483.75;;;6.30;100.00
19748;BME280;10032;51.386;12.516;2023-02-03T03:44:28;100470.69;;;6.33;100.00
19748;BME280;10032;51.386;12.516;2023-02-03T03:47:18;100465.50;;;6.38;100.00
19748;BME280;10032;51.386;12.516;2023-02-03T03:49:49;100457.00;;;6.41;100.00
19748;BME280;10032;51.386;12.516;2023-02-03T03:52:20;100450.97;;;6.46;100.00
19748;BME280;10032;51.386;12.516;2023-02-03T03:54:47;100450.50;;;6.49;100.00
19748;BME280;10032;51.386;12.516;2023-02-03T03:57:18;100443.47;;;6.54;100.00
19748;BME280;10032;51.386;12.516;2023-02-03T03:59:47;100423.97;;;6.59;100.00
19748;BME280;10032;51.386;12.516;2023-02-03T04:02:15;100424.97;;;6.64;100.00
19748;BME280;10032;51.386;12.516;2023-02-03T04:04:42;100434.47;;;6.67;100.00
19748;BME280;10032;51.386;12.516;2023-02-03T04:07:09;100448.31;;;6.70;100.00
19748;BME280;10032;51.386;12.516;2023-02-03T04:09:34;100446.22;;;6.72;100.00
19748;BME280;10032;51.386;12.516;2023-02-03T04:12:04;100453.88;;;6.75;100.00
19748;BME280;10032;51.386;12.516;2023-02-03T04:14:35;100446.41;;;6.77;100.00
19748;BME280;10032;51.386;12.516;2023-02-03T04:17:03;100448.69;;;6.80;100.00
19748;BME280;10032;51.386;12.516;2023-02-03T04:19:29;100450.69;;;6.85;100.00
19748;BME280;10032;51.386;12.516;2023-02-03T04:21:55;100471.63;;;6.89;100.00
19748;BME280;10032;51.386;12.516;2023-02-03T04:24:21;100457.91;;;6.91;100.00
19748;BME280;10032;51.386;12.516;2023-02-03T04:26:46;100443.19;;;6.93;100.00
19748;BME280;10032;51.386;12.516;2023-02-03T04:29:12;100447.94;;;6.98;100.00
19748;BME280;10032;51.386;12.516;2023-02-03T04:31:37;100448.31;;;7.01;100.00
19748;BME280;10032;51.386;12.516;2023-02-03T04:34:03;100454.09;;;7.05;100.00
19748;BME280;10032;51.386;12.516;2023-02-03T04:36:29;100456.56;;;7.06;100.00
19748;BME280;10032;51.386;12.516;2023-02-03T04:38:54;100438.91;;;7.10;100.00
19748;BME280;10032;51.386;12.516;2023-02-03T04:41:19;100439.50;;;7.12;100.00
19748;BME280;10032;51.386;12.516;2023-02-03T04:43:45;100458.97;;;7.14;100.00
19748;BME280;10032;51.386;12.516;2023-02-03T04:46:10;100447.75;;;7.17;100.00
19748;BME280;10032;51.386;12.516;2023-02-03T04:48:36;100440.91;;;7.21;100.00
19748;BME280;10032;51.386;12.516;2023-02-03T04:51:03;100432.34;;;7.24;100.00
19748;BME280;10032;51.386;12.516;2023-02-03T04:53:29;100428.19;;;7.28;100.00
19748;BME280;10032;51.386;12.516;2023-02-03T04:55:55;100427.75;;;7.31;100.00
19748;BME280;10032;51.386;12.516;2023-02-03T04:58:20;100409.47;;;7.33;100.00
19748;BME280;10032;51.386;12.516;2023-02-03T05:00:46;100404.69;;;7.35;100.00
19748;BME280;10032;51.386;12.516;2023-02-03T05:03:14;100412.91;;;7.40;100.00
19748;BME280;10032;51.386;12.516;2023-02-03T05:05:39;100397.38;;;7.42;100.00
19748;BME280;10032;51.386;12.516;2023-02-03T05:08:05;100393.63;;;7.43;100.00
19748;BME280;10032;51.386;12.516;2023-02-03T05:10:30;100387.75;;;7.46;100.00
19748;BME280;10032;51.386;12.516;2023-02-03T05:12:56;100371.38;;;7.48;100.00
19748;BME280;10032;51.386;12.516;2023-02-03T05:15:21;100375.06;;;7.53;100.00
19748;BME280;10032;51.386;12.516;2023-02-03T05:17:47;100357.00;;;7.54;100.00
19748;BME280;10032;51.386;12.516;2023-02-03T05:20:12;100355.72;;;7.56;100.00
19748;BME280;10032;51.386;12.516;2023-02-03T05:22:41;100356.09;;;7.60;100.00
19748;BME280;10032;51.386;12.516;2023-02-03T05:25:06;100348.84;;;7.60;100.00
19748;BME280;10032;51.386;12.516;2023-02-03T05:27:32;100345.72;;;7.63;100.00
19748;BME280;10032;51.386;12.516;2023-02-03T05:29:57;100346.72;;;7.62;100.00
19748;BME280;10032;51.386;12.516;2023-02-03T05:32:23;100354.38;;;7.65;100.00
19748;BME280;10032;51.386;12.516;2023-02-03T05:34:48;100345.47;;;7.65;100.00
19748;BME280;10032;51.386;12.516;2023-02-03T05:37:14;100347.72;;;7.68;100.00
19748;BME280;10032;51.386;12.516;2023-02-03T05:39:41;100361.34;;;7.73;100.00
19748;BME280;10032;51.386;12.516;2023-02-03T05:42:10;100354.09;;;7.73;100.00
19748;BME280;10032;51.386;12.516;2023-02-03T05:44:35;100356.31;;;7.76;100.00
19748;BME280;10032;51.386;12.516;2023-02-03T05:47:01;100357.97;;;7.77;100.00
19748;BME280;10032;51.386;12.516;2023-02-03T05:49:26;100342.03;;;7.76;100.00
19748;BME280;10032;51.386;12.516;2023-02-03T05:51:53;100351.50;;;7.78;100.00
19748;BME280;10032;51.386;12.516;2023-02-03T05:54:19;100344.03;;;7.80;100.00
19748;BME280;10032;51.386;12.516;2023-02-03T05:56:44;100332.78;;;7.83;100.00
19748;BME280;10032;51.386;12.516;2023-02-03T05:59:09;100330.91;;;7.84;100.00
19748;BME280;10032;51.386;12.516;2023-02-03T06:01:36;100317.44;;;7.84;100.00
19748;BME280;10032;51.386;12.516;2023-02-03T06:04:02;100328.00;;;7.85;100.00
19748;BME280;10032;51.386;12.516;2023-02-03T06:06:30;100301.38;;;7.89;100.00
19748;BME280;10032;51.386;12.516;2023-02-03T06:09:00;100316.28;;;7.91;100.00
19748;BME280;10032;51.386;12.516;2023-02-03T06:11:26;100298.81;;;7.94;100.00
19748;BME280;10032;51.386;12.516;2023-02-03T06:13:52;100296.34;;;7.92;100.00
19748;BME280;10032;51.386;12.516;2023-02-03T06:16:18;100297.78;;;7.95;100.00
19748;BME280;10032;51.386;12.516;2023-02-03T06:18:43;100296.13;;;7.94;100.00
19748;BME280;10032;51.386;12.516;2023-02-03T06:21:09;100290.50;;;7.95;100.00
19748;BME280;10032;51.386;12.516;2023-02-03T06:23:34;100297.91;;;8.00;100.00
19748;BME280;10032;51.386;12.516;2023-02-03T06:26:00;100285.84;;;8.02;100.00
19748;BME280;10032;51.386;12.516;2023-02-03T06:28:25;100286.41;;;8.04;100.00
19748;BME280;10032;51.386;12.516;2023-02-03T06:30:51;100282.09;;;8.03;100.00
19748;BME280;10032;51.386;12.516;2023-02-03T06:33:20;100281.03;;;8.04;100.00
19748;BME280;10032;51.386;12.516;2023-02-03T06:35:45;100278.31;;;8.04;100.00
19748;BME280;10032;51.386;12.516;2023-02-03T06:38:11;100273.53;;;8.06;100.00
19748;BME280;10032;51.386;12.516;2023-02-03T06:40:37;100277.88;;;8.07;100.00
19748;BME280;10032;51.386;12.516;2023-02-03T06:43:02;100263.34;;;8.08;100.00
19748;BME280;10032;51.386;12.516;2023-02-03T06:45:28;100259.13;;;8.12;100.00
19748;BME280;10032;51.386;12.516;2023-02-03T06:47:53;100250.56;;;8.15;100.00
19748;BME280;10032;51.386;12.516;2023-02-03T06:50:18;100254.56;;;8.13;100.00
19748;BME280;10032;51.386;12.516;2023-02-03T06:52:44;100257.00;;;8.14;100.00
19748;BME280;10032;51.386;12.516;2023-02-03T06:55:10;100246.22;;;8.14;100.00
19748;BME280;10032;51.386;12.516;2023-02-03T06:57:42;100256.34;;;8.19;100.00
19748;BME280;10032;51.386;12.516;2023-02-03T07:00:08;100266.91;;;8.20;100.00
19748;BME280;10032;51.386;12.516;2023-02-03T07:02:33;100253.19;;;8.22;100.00
19748;BME280;10032;51.386;12.516;2023-02-03T07:04:59;100261.06;;;8.23;100.00
19748;BME280;10032;51.386;12.516;2023-02-03T07:07:25;100265.41;;;8.24;100.00
19748;BME280;10032;51.386;12.516;2023-02-03T07:09:50;100252.50;;;8.26;100.00
19748;BME280;10032;51.386;12.516;2023-02-03T07:12:15;100244.41;;;8.26;100.00
19748;BME280;10032;51.386;12.516;2023-02-03T07:14:41;100236.91;;;8.28;100.00
19748;BME280;10032;51.386;12.516;2023-02-03T07:17:06;100231.50;;;8.28;100.00
19748;BME280;10032;51.386;12.516;2023-02-03T07:19:32;100241.00;;;8.31;100.00
19748;BME280;10032;51.386;12.516;2023-02-03T07:21:57;100238.88;;;8.33;100.00
19748;BME280;10032;51.386;12.516;2023-02-03T07:24:22;100241.34;;;8.34;100.00
19748;BME280;10032;51.386;12.516;2023-02-03T07:26:48;100248.41;;;8.35;100.00
19748;BME280;10032;51.386;12.516;2023-02-03T07:29:16;100237.59;;;8.35;100.00
19748;BME280;10032;51.386;12.516;2023-02-03T07:31:41;100246.06;;;8.39;100.00
19748;BME280;10032;51.386;12.516;2023-02-03T07:34:07;100243.13;;;8.40;100.00
19748;BME280;10032;51.386;12.516;2023-02-03T07:36:32;100230.69;;;8.39;100.00
19748;BME280;10032;51.386;12.516;2023-02-03T07:38:58;100235.25;;;8.39;100.00
19748;BME280;10032;51.386;12.516;2023-02-03T07:41:23;100232.31;;;8.40;100.00
19748;BME280;10032;51.386;12.516;2023-02-03T07:43:49;100234.22;;;8.40;100.00
19748;BME280;10032;51.386;12.516;2023-02-03T07:46:14;100233.97;;;8.41;100.00
19748;BME280;10032;51.386;12.516;2023-02-03T07:48:40;100241.59;;;8.44;100.00
19748;BME280;10032;51.386;12.516;2023-02-03T07:51:05;100227.88;;;8.46;100.00
19748;BME280;10032;51.386;12.516;2023-02-03T07:53:31;100223.06;;;8.48;100.00
19748;BME280;10032;51.386;12.516;2023-02-03T07:56:01;100227.16;;;8.50;100.00
19748;BME280;10032;51.386;12.516;2023-02-03T07:58:27;100214.50;;;8.51;100.00
19748;BME280;10032;51.386;12.516;2023-02-03T08:00:54;100239.59;;;8.51;100.00
19748;BME280;10032;51.386;12.516;2023-02-03T08:03:19;100220.25;;;8.54;100.00
19748;BME280;10032;51.386;12.516;2023-02-03T08:05:46;100203.00;;;8.55;100.00
19748;BME280;10032;51.386;12.516;2023-02-03T08:08:11;100204.06;;;8.54;100.00
19748;BME280;10032;51.386;12.516;2023-02-03T08:10:37;100190.56;;;8.54;100.00
19748;BME280;10032;51.386;12.516;2023-02-03T08:13:02;100187.13;;;8.59;100.00
19748;BME280;10032;51.386;12.516;2023-02-03T08:15:28;100184.78;;;8.62;100.00
19748;BME280;10032;51.386;12.516;2023-02-03T08:17:53;100177.75;;;8.61;100.00
19748;BME280;10032;51.386;12.516;2023-02-03T08:20:19;100187.25;;;8.64;100.00
19748;BME280;10032;51.386;12.516;2023-02-03T08:22:45;100184.31;;;8.65;100.00
19748;BME280;10032;51.386;12.516;2023-02-03T08:25:10;100179.97;;;8.64;100.00
19748;BME280;10032;51.386;12.516;2023-02-03T08:27:36;100188.66;;;8.66;100.00
19748;BME280;10032;51.386;12.516;2023-02-03T08:30:03;100179.50;;;8.67;100.00
19748;BME280;10032;51.386;12.516;2023-02-03T08:32:29;100163.66;;;8.71;100.00
19748;BME280;10032;51.386;12.516;2023-02-03T08:34:54;100162.59;;;8.72;100.00
19748;BME280;10032;51.386;12.516;2023-02-03T08:37:22;100162.09;;;8.75;100.00
19748;BME280;10032;51.386;12.516;2023-02-03T08:39:52;100161.31;;;8.74;100.00
19748;BME280;10032;51.386;12.516;2023-02-03T08:42:18;100146.25;;;8.78;100.00
19748;BME280;10032;51.386;12.516;2023-02-03T08:44:43;100142.25;;;8.81;100.00
19748;BME280;10032;51.386;12.516;2023-02-03T08:47:09;100134.41;;;8.79;100.00
19748;BME280;10032;51.386;12.516;2023-02-03T08:49:35;100145.78;;;8.81;100.00
19748;BME280;10032;51.386;12.516;2023-02-03T08:52:04;100131.81;;;8.84;100.00
19748;BME280;10032;51.386;12.516;2023-02-03T08:54:30;100116.63;;;8.83;100.00
19748;BME280;10032;51.386;12.516;2023-02-03T08:56:56;100120.50;;;8.87;100.00
19748;BME280;10032;51.386;12.516;2023-02-03T08:59:21;100117.00;;;8.87;100.00
19748;BME280;10032;51.386;12.516;2023-02-03T09:01:47;100108.41;;;8.90;100.00
19748;BME280;10032;51.386;12.516;2023-02-03T09:04:13;100108.97;;;8.92;100.00
19748;BME280;10032;51.386;12.516;2023-02-03T09:06:39;100103.56;;;8.92;100.00
19748;BME280;10032;51.386;12.516;2023-02-03T09:09:05;100099.00;;;8.92;100.00
19748;BME280;10032;51.386;12.516;2023-02-03T09:11:31;100103.09;;;8.95;100.00
19748;BME280;10032;51.386;12.516;2023-02-03T09:13:56;100096.88;;;8.94;100.00
19748;BME280;10032;51.386;12.516;2023-02-03T09:16:23;100090.44;;;8.95;100.00
19748;BME280;10032;51.386;12.516;2023-02-03T09:18:48;100093.69;;;8.97;100.00
19748;BME280;10032;51.386;12.516;2023-02-03T09:21:15;100085.13;;;9.00;100.00
19748;BME280;10032;51.386;12.516;2023-02-03T09:23:42;100088.97;;;9.04;100.00
19748;BME280;10032;51.386;12.516;2023-02-03T09:26:10;100080.84;;;9.04;100.00
19748;BME280;10032;51.386;12.516;2023-02-03T09:28:36;100082.53;;;9.05;100.00
19748;BME280;10032;51.386;12.516;2023-02-03T09:31:10;100080.63;;;9.06;100.00
19748;BME280;10032;51.386;12.516;2023-02-03T09:33:37;100082.84;;;9.09;100.00
19748;BME280;10032;51.386;12.516;2023-02-03T09:36:03;100080.16;;;9.09;100.00
19748;BME280;10032;51.386;12.516;2023-02-03T09:38:30;100076.16;;;9.11;100.00
19748;BME280;10032;51.386;12.516;2023-02-03T09:41:34;100070.75;;;9.11;100.00
19748;BME280;10032;51.386;12.516;2023-02-03T09:46:33;100072.25;;;9.19;100.00
19748;BME280;10032;51.386;12.516;2023-02-03T09:51:49;100038.97;;;9.18;100.00
19748;BME280;10032;51.386;12.516;2023-02-03T09:54:20;100053.66;;;9.22;100.00
19748;BME280;10032;51.386;12.516;2023-02-03T09:56:51;100041.44;;;9.20;100.00
19748;BME280;10032;51.386;12.516;2023-02-03T09:59:20;100043.81;;;9.16;100.00
19748;BME280;10032;51.386;12.516;2023-02-03T10:01:54;100055.41;;;9.17;100.00
19748;BME280;10032;51.386;12.516;2023-02-03T10:06:55;100041.66;;;9.18;100.00
19748;BME280;10032;51.386;12.516;2023-02-03T10:17:38;100035.28;;;9.24;100.00
19748;BME280;10032;51.386;12.516;2023-02-03T10:22:40;100017.09;;;9.20;100.00
19748;BME280;10032;51.386;12.516;2023-02-03T10:25:16;100019.81;;;9.20;100.00
19748;BME280;10032;51.386;12.516;2023-02-03T10:27:46;100024.72;;;9.23;100.00
19748;BME280;10032;51.386;12.516;2023-02-03T10:30:27;100023.91;;;9.22;100.00
19748;BME280;10032;51.386;12.516;2023-02-03T10:32:54;100034.22;;;9.25;100.00
19748;BME280;10032;51.386;12.516;2023-02-03T10:35:27;100025.31;;;9.25;100.00
19748;BME280;10032;51.386;12.516;2023-02-03T10:37:57;100025.31;;;9.25;100.00
19748;BME280;10032;51.386;12.516;2023-02-03T10:40:25;100020.47;;;9.27;100.00
19748;BME280;10032;51.386;12.516;2023-02-03T10:42:51;100022.59;;;9.25;100.00
19748;BME280;10032;51.386;12.516;2023-02-03T10:45:36;100014.25;;;9.26;100.00
19748;BME280;10032;51.386;12.516;2023-02-03T10:48:10;100028.91;;;9.30;100.00
19748;BME280;10032;51.386;12.516;2023-02-03T10:50:41;100012.94;;;9.29;100.00
19748;BME280;10032;51.386;12.516;2023-02-03T10:55:43;100038.66;;;9.31;100.00
19748;BME280;10032;51.386;12.516;2023-02-03T10:58:15;100035.94;;;9.31;100.00
19748;BME280;10032;51.386;12.516;2023-02-03T11:00:42;100043.50;;;9.29;100.00
19748;BME280;10032;51.386;12.516;2023-02-03T11:03:27;100059.22;;;9.32;100.00
19748;BME280;10032;51.386;12.516;2023-02-03T11:08:32;100035.88;;;9.26;100.00
19748;BME280;10032;51.386;12.516;2023-02-03T11:11:12;100033.91;;;9.22;100.00
19748;BME280;10032;51.386;12.516;2023-02-03T11:13:37;100031.09;;;9.17;100.00
19748;BME280;10032;51.386;12.516;2023-02-03T11:16:10;100019.50;;;9.16;100.00
19748;BME280;10032;51.386;12.516;2023-02-03T11:18:50;100027.81;;;9.15;100.00
19748;BME280;10032;51.386;12.516;2023-02-03T11:21:27;100019.50;;;9.16;100.00
19748;BME280;10032;51.386;12.516;2023-02-03T11:23:55;100017.59;;;9.17;100.00
19748;BME280;10032;51.386;12.516;2023-02-03T11:26:25;100011.94;;;9.18;100.00
19748;BME280;10032;51.386;12.516;2023-02-03T11:29:03;99996.19;;;9.15;100.00
19748;BME280;10032;51.386;12.516;2023-02-03T11:31:37;99994.56;;;9.14;100.00
19748;BME280;10032;51.386;12.516;2023-02-03T11:34:05;99998.09;;;9.15;100.00
19748;BME280;10032;51.386;12.516;2023-02-03T11:36:40;100015.13;;;9.15;100.00
19748;BME280;10032;51.386;12.516;2023-02-03T11:41:42;100001.59;;;9.15;100.00
19748;BME280;10032;51.386;12.516;2023-02-03T11:44:25;99981.13;;;9.19;100.00
19748;BME280;10032;51.386;12.516;2023-02-03T11:52:52;99958.44;;;9.20;100.00
19748;BME280;10032;51.386;12.516;2023-02-03T11:55:22;99963.06;;;9.20;100.00
19748;BME280;10032;51.386;12.516;2023-02-03T12:06:05;99913.97;;;9.28;100.00
19748;BME280;10032;51.386;12.516;2023-02-03T12:11:29;99900.53;;;9.33;100.00
19748;BME280;10032;51.386;12.516;2023-02-03T12:19:31;99931.09;;;9.33;100.00
19748;BME280;10032;51.386;12.516;2023-02-03T12:27:27;99950.34;;;9.37;100.00
19748;BME280;10032;51.386;12.516;2023-02-03T12:30:08;99941.50;;;9.41;100.00
19748;BME280;10032;51.386;12.516;2023-02-03T12:38:02;99973.63;;;9.38;100.00
19748;BME280;10032;51.386;12.516;2023-02-03T12:51:42;100003.91;;;9.23;100.00
19748;BME280;10032;51.386;12.516;2023-02-03T12:56:44;100004.06;;;9.00;100.00
19748;BME280;10032;51.386;12.516;2023-02-03T12:59:18;100002.31;;;8.94;100.00
19748;BME280;10032;51.386;12.516;2023-02-03T13:02:10;100016.31;;;8.91;100.00
19748;BME280;10032;51.386;12.516;2023-02-03T13:04:52;100024.31;;;8.86;100.00
19748;BME280;10032;51.386;12.516;2023-02-03T13:10:18;100043.03;;;8.76;100.00
19748;BME280;10032;51.386;12.516;2023-02-03T13:12:51;100046.19;;;8.73;100.00
19748;BME280;10032;51.386;12.516;2023-02-03T13:15:26;100054.91;;;8.75;100.00
19748;BME280;10032;51.386;12.516;2023-02-03T13:18:25;100047.88;;;8.74;100.00
19748;BME280;10032;51.386;12.516;2023-02-03T13:20:54;100050.94;;;8.66;100.00
19748;BME280;10032;51.386;12.516;2023-02-03T13:23:20;100053.88;;;8.65;100.00
19748;BME280;10032;51.386;12.516;2023-02-03T13:38:09;100064.53;;;8.71;100.00
19748;BME280;10032;51.386;12.516;2023-02-03T13:43:14;100084.00;;;8.73;100.00
19748;BME280;10032;51.386;12.516;2023-02-03T13:45:48;100077.13;;;8.66;100.00
19748;BME280;10032;51.386;12.516;2023-02-03T13:48:20;100075.84;;;8.68;100.00
19748;BME280;10032;51.386;12.516;2023-02-03T13:50:48;100102.34;;;8.71;100.00
19748;BME280;10032;51.386;12.516;2023-02-03T13:53:18;100096.94;;;8.71;100.00
19748;BME280;10032;51.386;12.516;2023-02-03T13:55:56;100105.53;;;8.68;100.00
19748;BME280;10032;51.386;12.516;2023-02-03T13:58:34;100112.09;;;8.72;100.00
19748;BME280;10032;51.386;12.516;2023-02-03T14:01:25;100096.94;;;8.71;100.00
19748;BME280;10032;51.386;12.516;2023-02-03T14:03:52;100084.41;;;8.65;100.00
19748;BME280;10032;51.386;12.516;2023-02-03T14:20:02;100053.06;;;8.64;100.00
19748;BME280;10032;51.386;12.516;2023-02-03T14:22:29;100096.28;;;8.64;100.00
19748;BME280;10032;51.386;12.516;2023-02-03T14:24:57;100091.34;;;8.61;100.00
19748;BME280;10032;51.386;12.516;2023-02-03T14:27:29;100094.53;;;8.58;100.00
19748;BME280;10032;51.386;12.516;2023-02-03T14:30:15;100113.88;;;8.55;100.00
19748;BME280;10032;51.386;12.516;2023-02-03T14:32:58;100113.16;;;8.60;100.00
19748;BME280;10032;51.386;12.516;2023-02-03T14:35:31;100117.16;;;8.57;100.00
19748;BME280;10032;51.386;12.516;2023-02-03T14:38:01;100118.72;;;8.53;100.00
19748;BME280;10032;51.386;12.516;2023-02-03T15:00:06;100135.50;;;8.32;100.00
19748;BME280;10032;51.386;12.516;2023-02-03T15:02:35;100143.84;;;8.31;100.00
19748;BME280;10032;51.386;12.516;2023-02-03T15:07:46;100142.66;;;8.27;100.00
19748;BME280;10032;51.386;12.516;2023-02-03T15:10:22;100146.88;;;8.23;100.00